Nagasaki Maru — 8KYO — position and weather

sailwx.info

Track history (hours):
 
Tides and Currents Weather Stations Pressure Air Temp Water Temp Dewpoint Dewpoint Depression Visibility Wind Speed Wind Dir Waves Ship Positions

Oceanographic research ship Nagasaki Maru (Japan)

Detailed information on ship capabilities available from University of Delaware's Ocean Information Center.

Last reported at 2017-Nov-15 00:03 UTC. Time now 2017-Dec-18 18:17 UTC.
Position N 34°36' E 134°55'.
Warning: this ship's position is 33 days out of date.

Length 63 m; beam 11 m.

Type: Fishing. MMSI: 431397000.

Date/timePositionNaut miles runAvg speedWind from/ knotsBaromVisibWave heightAir tempDewpointWater temp
2017-Nov-15 00:03N 34°36' E 134°55'113.3
2017-Nov-14 23:58N 34°37' E 134°57'511.6
2017-Nov-14 23:30N 34°36' E 135°03'510.8
2017-Nov-14 23:00N 34°31' E 135°04'612.7
2017-Nov-14 22:30N 34°25' E 135°02'713.0
2017-Nov-14 21:55N 34°18' E 134°59'512.1
2017-Nov-14 21:30N 34°13' E 134°59'610.8
2017-Nov-14 20:59N 34°07' E 134°58'5 7.1
2017-Nov-14 20:19N 34°03' E 134°56'0 0.7
2017-Nov-14 19:41N 34°03' E 134°56'2 0.9
2017-Nov-14 17:28N 34°03' E 134°53'1 1.0
2017-Nov-14 16:47N 34°03' E 134°52'251 6.5
2017-Nov-13 02:00N 35°19' E 139°43'611.4
2017-Nov-13 01:30N 35°25' E 139°43'612.6
2017-Nov-13 01:00N 35°28' E 139°50'610.9
2017-Nov-13 00:30N 35°34' E 139°49'5 9.9
2017-Nov-13 00:00N 35°38' E 139°46'  
2017-Nov-10 01:44N 35°39' E 139°47'1 3.8
2017-Nov-10 01:30N 35°38' E 139°46'3 6.0
2017-Nov-10 00:56N 35°35' E 139°48'4 8.7
2017-Nov-10 00:26N 35°32' E 139°52'4 8.8
2017-Nov-10 00:00N 35°29' E 139°52'5 9.5
2017-Nov-09 23:30N 35°25' E 139°48'511.0
2017-Nov-09 23:00N 35°20' E 139°45'510.6
2017-Nov-09 22:30N 35°15' E 139°47'510.4
2017-Nov-09 22:00N 35°10' E 139°47'  
Track history (hours):
 
Tides and Currents Weather Stations Pressure Air Temp Water Temp Dewpoint Dewpoint Depression Visibility Wind Speed Wind Dir Waves Ship Positions

Oceanographic research ship Nagasaki Maru (Japan)

Detailed information on ship capabilities available from University of Delaware's Ocean Information Center.

Last reported at 2017-Nov-15 00:03 UTC. Time now 2017-Dec-18 18:17 UTC.
Position N 34°36' E 134°55'.
Warning: this ship's position is 33 days out of date.

Length 63 m; beam 11 m.

Type: Fishing. MMSI: 431397000.

Date/timePositionNaut miles runAvg speedWind from/ knotsBaromVisibWave heightAir tempDewpointWater temp
2017-Nov-15 00:03N 34°36' E 134°55'113.3
2017-Nov-14 23:58N 34°37' E 134°57'511.6
2017-Nov-14 23:30N 34°36' E 135°03'510.8
2017-Nov-14 23:00N 34°31' E 135°04'612.7
2017-Nov-14 22:30N 34°25' E 135°02'713.0
2017-Nov-14 21:55N 34°18' E 134°59'512.1
2017-Nov-14 21:30N 34°13' E 134°59'610.8
2017-Nov-14 20:59N 34°07' E 134°58'5 7.1
2017-Nov-14 20:19N 34°03' E 134°56'0 0.7
2017-Nov-14 19:41N 34°03' E 134°56'2 0.9
2017-Nov-14 17:28N 34°03' E 134°53'1 1.0
2017-Nov-14 16:47N 34°03' E 134°52'251 6.5
2017-Nov-13 02:00N 35°19' E 139°43'611.4
2017-Nov-13 01:30N 35°25' E 139°43'612.6
2017-Nov-13 01:00N 35°28' E 139°50'610.9
2017-Nov-13 00:30N 35°34' E 139°49'5 9.9
2017-Nov-13 00:00N 35°38' E 139°46'  
2017-Nov-10 01:44N 35°39' E 139°47'1 3.8
2017-Nov-10 01:30N 35°38' E 139°46'3 6.0
2017-Nov-10 00:56N 35°35' E 139°48'4 8.7
2017-Nov-10 00:26N 35°32' E 139°52'4 8.8
2017-Nov-10 00:00N 35°29' E 139°52'5 9.5
2017-Nov-09 23:30N 35°25' E 139°48'511.0
2017-Nov-09 23:00N 35°20' E 139°45'510.6
2017-Nov-09 22:30N 35°15' E 139°47'510.4
2017-Nov-09 22:00N 35°10' E 139°47'  

Dump ship's entire track history